Charles B. Wheeler Downtown Airport
KMKC : rendu visible

Aérodrome :











RETROUVEZ-NOUS SUR...

 
LOGIN :

S'inscrire | Disclaimer

   EN    FR    IT 

 









Légende :    VFR   VFR Marginal   IFR   IFR Intensif   IFR Très Intensif
Visi : 
Plafond : 
>= 8 km
>= 3000ft
5 à 8 km
1000 à 3000 ft
1500m à 5 km
500 à 1000 ft
800 à 1500m
200 à 500 ft
< 800m
< 200 ft
Symboles :   Orages  Brouillard  Fortes neiges  Fortes précipitations  Vent > 20 kt






- Altitude de l'aérodrome : 759 ft
- Code IATA : MKC


KMKC - Charles B. Wheeler Downtown

DERNIER METAR :
  • 191254Z 24005KT 10SM CLR 05/02 A2989 RMK AO2 SLP124 T00500022

METARs EXPIRÉS :
  • 191154Z 20006KT 10SM CLR 03/01 A2985 RMK AO2 SLP111 T00330011 10111 20022 51014
  • 191054Z 22006KT 10SM CLR 03/01 A2984 RMK AO2 SLP107 T00330011

TAF KMKC
Valide du 19 à 12h jusqu'au 20 à 12h UTC


191124Z 1912/2012 28007KT P6SM FEW250
FM200000 12005KT P6SM SCT250



MET'MAP, la Météo Aéronautique d'un coup d'oeil ! - Copyright ORBIFLY Décembre 2007 - Disclaimer

ORBIFLY MET'MAP TEAM :

Programmation & Développement : Alexandra Zaïnal
Conception & Développement : Baudouin d'Aumeries
Co-Programmation & Développement : Marc-Olivier Méhu
Soutien technique & logistique : Manuel Goepfert

Contact : metmap@orbifly.com




SOURCES & CREDITS :

   NOAA       Earth
Advisory